sensor_id;sensor_type;location;lat;lon;timestamp;pressure;altitude;pressure_sealevel;temperature;humidity
6829;BME280;17930;48.592;8.868;2023-03-22T00:02:23;96630.06;;;8.64;100.00
6829;BME280;17930;48.592;8.868;2023-03-22T00:04:50;96618.13;;;8.73;100.00
6829;BME280;17930;48.592;8.868;2023-03-22T00:07:18;96625.69;;;8.45;100.00
6829;BME280;17930;48.592;8.868;2023-03-22T00:09:44;96618.66;;;8.30;100.00
6829;BME280;17930;48.592;8.868;2023-03-22T00:12:11;96629.03;;;8.20;100.00
6829;BME280;17930;48.592;8.868;2023-03-22T00:14:38;96615.31;;;8.15;100.00
6829;BME280;17930;48.592;8.868;2023-03-22T00:17:05;96611.34;;;8.08;100.00
6829;BME280;17930;48.592;8.868;2023-03-22T00:19:32;96613.66;;;7.89;100.00
6829;BME280;17930;48.592;8.868;2023-03-22T00:21:59;96615.47;;;7.94;100.00
6829;BME280;17930;48.592;8.868;2023-03-22T00:24:27;96606.13;;;7.78;100.00
6829;BME280;17930;48.592;8.868;2023-03-22T00:26:54;96609.78;;;7.82;100.00
6829;BME280;17930;48.592;8.868;2023-03-22T00:29:20;96617.00;;;7.60;100.00
6829;BME280;17930;48.592;8.868;2023-03-22T00:31:48;96610.97;;;7.50;100.00
6829;BME280;17930;48.592;8.868;2023-03-22T00:34:16;96612.53;;;7.41;100.00
6829;BME280;17930;48.592;8.868;2023-03-22T00:36:42;96614.31;;;7.35;100.00
6829;BME280;17930;48.592;8.868;2023-03-22T00:39:09;96617.19;;;7.39;100.00
6829;BME280;17930;48.592;8.868;2023-03-22T00:41:38;96613.81;;;7.38;100.00
6829;BME280;17930;48.592;8.868;2023-03-22T00:44:04;96611.75;;;7.40;100.00
6829;BME280;17930;48.592;8.868;2023-03-22T00:46:31;96601.63;;;7.39;100.00
6829;BME280;17930;48.592;8.868;2023-03-22T00:48:58;96600.28;;;7.26;100.00
6829;BME280;17930;48.592;8.868;2023-03-22T00:51:24;96603.97;;;7.40;100.00
6829;BME280;17930;48.592;8.868;2023-03-22T00:53:51;96598.75;;;7.35;100.00
6829;BME280;17930;48.592;8.868;2023-03-22T00:56:19;96597.19;;;7.34;100.00
6829;BME280;17930;48.592;8.868;2023-03-22T00:58:48;96591.47;;;7.32;100.00
6829;BME280;17930;48.592;8.868;2023-03-22T01:01:15;96589.44;;;7.44;100.00
6829;BME280;17930;48.592;8.868;2023-03-22T01:03:42;96590.16;;;7.30;100.00
6829;BME280;17930;48.592;8.868;2023-03-22T01:06:09;96592.47;;;7.21;100.00
6829;BME280;17930;48.592;8.868;2023-03-22T01:08:36;96586.69;;;7.00;100.00
6829;BME280;17930;48.592;8.868;2023-03-22T01:11:04;96576.75;;;6.82;100.00
6829;BME280;17930;48.592;8.868;2023-03-22T01:13:31;96572.19;;;7.09;100.00
6829;BME280;17930;48.592;8.868;2023-03-22T01:15:59;96576.25;;;6.85;100.00
6829;BME280;17930;48.592;8.868;2023-03-22T01:18:26;96573.53;;;6.60;100.00
6829;BME280;17930;48.592;8.868;2023-03-22T01:20:52;96571.88;;;6.44;100.00
6829;BME280;17930;48.592;8.868;2023-03-22T01:23:19;96571.03;;;6.34;100.00
6829;BME280;17930;48.592;8.868;2023-03-22T01:25:45;96575.63;;;6.22;100.00
6829;BME280;17930;48.592;8.868;2023-03-22T01:28:12;96571.59;;;6.05;100.00
6829;BME280;17930;48.592;8.868;2023-03-22T01:30:39;96567.38;;;5.94;100.00
6829;BME280;17930;48.592;8.868;2023-03-22T01:33:07;96563.97;;;5.88;100.00
6829;BME280;17930;48.592;8.868;2023-03-22T01:35:34;96570.41;;;5.86;100.00
6829;BME280;17930;48.592;8.868;2023-03-22T01:38:01;96569.38;;;5.87;100.00
6829;BME280;17930;48.592;8.868;2023-03-22T01:40:28;96563.69;;;5.85;100.00
6829;BME280;17930;48.592;8.868;2023-03-22T01:42:55;96570.13;;;5.82;100.00
6829;BME280;17930;48.592;8.868;2023-03-22T01:45:38;96560.28;;;5.79;100.00
6829;BME280;17930;48.592;8.868;2023-03-22T01:48:16;96558.34;;;5.70;100.00
6829;BME280;17930;48.592;8.868;2023-03-22T01:50:48;96564.53;;;5.69;100.00
6829;BME280;17930;48.592;8.868;2023-03-22T01:53:21;96557.50;;;5.64;100.00
6829;BME280;17930;48.592;8.868;2023-03-22T01:55:50;96558.78;;;5.62;100.00
6829;BME280;17930;48.592;8.868;2023-03-22T01:58:17;96559.56;;;5.62;100.00
6829;BME280;17930;48.592;8.868;2023-03-22T02:00:45;96555.06;;;5.53;100.00
6829;BME280;17930;48.592;8.868;2023-03-22T02:03:16;96552.31;;;5.59;100.00
6829;BME280;17930;48.592;8.868;2023-03-22T02:05:46;96550.38;;;5.50;100.00
6829;BME280;17930;48.592;8.868;2023-03-22T02:08:13;96549.81;;;5.43;100.00
6829;BME280;17930;48.592;8.868;2023-03-22T02:10:40;96551.31;;;5.39;100.00
6829;BME280;17930;48.592;8.868;2023-03-22T02:13:41;96543.38;;;5.46;100.00
6829;BME280;17930;48.592;8.868;2023-03-22T02:16:22;96541.19;;;5.33;100.00
6829;BME280;17930;48.592;8.868;2023-03-22T02:19:04;96533.81;;;5.20;100.00
6829;BME280;17930;48.592;8.868;2023-03-22T02:22:11;96535.34;;;5.21;100.00
6829;BME280;17930;48.592;8.868;2023-03-22T02:25:04;96533.41;;;5.07;100.00
6829;BME280;17930;48.592;8.868;2023-03-22T02:27:48;96524.53;;;4.98;100.00
6829;BME280;17930;48.592;8.868;2023-03-22T02:30:49;96530.78;;;5.02;100.00
6829;BME280;17930;48.592;8.868;2023-03-22T02:33:45;96531.72;;;4.96;100.00
6829;BME280;17930;48.592;8.868;2023-03-22T02:36:42;96533.16;;;4.87;100.00
6829;BME280;17930;48.592;8.868;2023-03-22T02:39:23;96534.41;;;4.84;100.00
6829;BME280;17930;48.592;8.868;2023-03-22T02:42:05;96534.06;;;4.97;100.00
6829;BME280;17930;48.592;8.868;2023-03-22T02:44:40;96532.19;;;4.93;100.00
6829;BME280;17930;48.592;8.868;2023-03-22T02:47:15;96527.47;;;4.85;100.00
6829;BME280;17930;48.592;8.868;2023-03-22T02:49:50;96529.09;;;4.91;100.00
6829;BME280;17930;48.592;8.868;2023-03-22T02:52:24;96528.00;;;4.87;100.00
6829;BME280;17930;48.592;8.868;2023-03-22T02:54:55;96531.78;;;4.79;100.00
6829;BME280;17930;48.592;8.868;2023-03-22T02:57:30;96538.78;;;4.79;100.00
6829;BME280;17930;48.592;8.868;2023-03-22T03:00:03;96536.41;;;4.77;100.00
6829;BME280;17930;48.592;8.868;2023-03-22T03:02:33;96533.78;;;4.72;100.00
6829;BME280;17930;48.592;8.868;2023-03-22T03:05:01;96535.59;;;4.72;100.00
6829;BME280;17930;48.592;8.868;2023-03-22T03:07:29;96532.53;;;4.75;100.00
6829;BME280;17930;48.592;8.868;2023-03-22T03:09:58;96537.50;;;4.81;100.00
6829;BME280;17930;48.592;8.868;2023-03-22T03:12:26;96536.22;;;4.84;100.00
6829;BME280;17930;48.592;8.868;2023-03-22T03:14:54;96537.59;;;5.12;100.00
6829;BME280;17930;48.592;8.868;2023-03-22T03:17:28;96538.22;;;4.98;100.00
6829;BME280;17930;48.592;8.868;2023-03-22T03:20:14;96545.56;;;4.85;100.00
6829;BME280;17930;48.592;8.868;2023-03-22T03:22:51;96546.44;;;4.74;100.00
6829;BME280;17930;48.592;8.868;2023-03-22T03:25:26;96538.09;;;4.67;100.00
6829;BME280;17930;48.592;8.868;2023-03-22T03:28:03;96541.88;;;4.59;100.00
6829;BME280;17930;48.592;8.868;2023-03-22T03:30:37;96544.22;;;4.61;100.00
6829;BME280;17930;48.592;8.868;2023-03-22T03:33:08;96544.63;;;4.74;100.00
6829;BME280;17930;48.592;8.868;2023-03-22T03:35:40;96541.81;;;4.76;100.00
6829;BME280;17930;48.592;8.868;2023-03-22T03:38:11;96545.91;;;4.72;100.00
6829;BME280;17930;48.592;8.868;2023-03-22T03:40:44;96542.25;;;4.68;100.00
6829;BME280;17930;48.592;8.868;2023-03-22T03:43:13;96547.09;;;4.64;100.00
6829;BME280;17930;48.592;8.868;2023-03-22T03:45:41;96543.88;;;4.74;100.00
6829;BME280;17930;48.592;8.868;2023-03-22T03:48:12;96546.94;;;4.71;100.00
6829;BME280;17930;48.592;8.868;2023-03-22T03:50:40;96545.44;;;4.75;100.00
6829;BME280;17930;48.592;8.868;2023-03-22T03:53:07;96550.00;;;4.68;100.00
6829;BME280;17930;48.592;8.868;2023-03-22T03:55:34;96543.00;;;4.68;100.00
6829;BME280;17930;48.592;8.868;2023-03-22T03:58:02;96547.94;;;4.91;100.00
6829;BME280;17930;48.592;8.868;2023-03-22T04:00:29;96539.75;;;5.20;100.00
6829;BME280;17930;48.592;8.868;2023-03-22T04:02:55;96544.09;;;5.15;100.00
6829;BME280;17930;48.592;8.868;2023-03-22T04:05:22;96548.28;;;5.00;100.00
6829;BME280;17930;48.592;8.868;2023-03-22T04:07:48;96550.25;;;4.88;100.00
6829;BME280;17930;48.592;8.868;2023-03-22T04:10:15;96558.34;;;4.75;100.00
6829;BME280;17930;48.592;8.868;2023-03-22T04:12:42;96551.00;;;4.67;100.00
6829;BME280;17930;48.592;8.868;2023-03-22T04:15:10;96551.13;;;4.56;100.00
6829;BME280;17930;48.592;8.868;2023-03-22T04:17:37;96545.94;;;4.56;100.00
6829;BME280;17930;48.592;8.868;2023-03-22T04:20:05;96542.34;;;4.57;100.00
6829;BME280;17930;48.592;8.868;2023-03-22T04:22:33;96534.41;;;4.84;100.00
6829;BME280;17930;48.592;8.868;2023-03-22T04:25:03;96531.97;;;4.73;100.00
6829;BME280;17930;48.592;8.868;2023-03-22T04:27:29;96525.13;;;4.62;100.00
6829;BME280;17930;48.592;8.868;2023-03-22T04:29:56;96524.41;;;4.45;100.00
6829;BME280;17930;48.592;8.868;2023-03-22T04:32:26;96524.41;;;4.45;100.00
6829;BME280;17930;48.592;8.868;2023-03-22T04:34:53;96528.88;;;4.55;100.00
6829;BME280;17930;48.592;8.868;2023-03-22T04:37:19;96521.50;;;4.63;100.00
6829;BME280;17930;48.592;8.868;2023-03-22T04:39:49;96530.41;;;4.72;100.00
6829;BME280;17930;48.592;8.868;2023-03-22T04:42:15;96523.56;;;4.61;100.00
6829;BME280;17930;48.592;8.868;2023-03-22T04:44:42;96525.19;;;4.67;100.00
6829;BME280;17930;48.592;8.868;2023-03-22T04:47:08;96530.16;;;4.52;100.00
6829;BME280;17930;48.592;8.868;2023-03-22T04:49:36;96522.34;;;4.47;100.00
6829;BME280;17930;48.592;8.868;2023-03-22T04:52:03;96525.00;;;4.52;100.00
6829;BME280;17930;48.592;8.868;2023-03-22T04:54:31;96522.09;;;4.49;100.00
6829;BME280;17930;48.592;8.868;2023-03-22T04:56:57;96512.41;;;4.39;100.00
6829;BME280;17930;48.592;8.868;2023-03-22T04:59:25;96515.97;;;4.33;100.00
6829;BME280;17930;48.592;8.868;2023-03-22T05:01:52;96515.81;;;4.40;100.00
6829;BME280;17930;48.592;8.868;2023-03-22T05:04:18;96509.38;;;4.42;100.00
6829;BME280;17930;48.592;8.868;2023-03-22T05:06:47;96516.16;;;4.10;100.00
6829;BME280;17930;48.592;8.868;2023-03-22T05:09:14;96510.38;;;4.04;100.00
6829;BME280;17930;48.592;8.868;2023-03-22T05:11:41;96508.97;;;4.12;100.00
6829;BME280;17930;48.592;8.868;2023-03-22T05:14:08;96511.63;;;4.17;100.00
6829;BME280;17930;48.592;8.868;2023-03-22T05:16:35;96502.88;;;4.18;100.00
6829;BME280;17930;48.592;8.868;2023-03-22T05:19:05;96507.91;;;3.92;100.00
6829;BME280;17930;48.592;8.868;2023-03-22T05:21:39;96511.81;;;3.78;100.00
6829;BME280;17930;48.592;8.868;2023-03-22T05:24:07;96509.28;;;4.00;100.00
6829;BME280;17930;48.592;8.868;2023-03-22T05:26:34;96506.47;;;4.17;100.00
6829;BME280;17930;48.592;8.868;2023-03-22T05:29:03;96506.50;;;4.39;100.00
6829;BME280;17930;48.592;8.868;2023-03-22T05:31:30;96501.09;;;4.40;100.00
6829;BME280;17930;48.592;8.868;2023-03-22T05:33:59;96497.84;;;4.28;100.00
6829;BME280;17930;48.592;8.868;2023-03-22T05:36:27;96505.16;;;4.36;100.00
6829;BME280;17930;48.592;8.868;2023-03-22T05:38:54;96511.00;;;4.10;100.00
6829;BME280;17930;48.592;8.868;2023-03-22T05:41:23;96505.69;;;4.01;100.00
6829;BME280;17930;48.592;8.868;2023-03-22T05:43:49;96506.72;;;4.00;100.00
6829;BME280;17930;48.592;8.868;2023-03-22T05:46:16;96504.09;;;4.32;100.00
6829;BME280;17930;48.592;8.868;2023-03-22T05:48:43;96500.13;;;4.46;100.00
6829;BME280;17930;48.592;8.868;2023-03-22T05:51:11;96502.19;;;4.28;100.00
6829;BME280;17930;48.592;8.868;2023-03-22T05:53:41;96504.38;;;4.36;100.00
6829;BME280;17930;48.592;8.868;2023-03-22T05:56:08;96506.63;;;4.49;100.00
6829;BME280;17930;48.592;8.868;2023-03-22T05:58:36;96510.63;;;4.40;100.00
6829;BME280;17930;48.592;8.868;2023-03-22T06:01:05;96514.09;;;4.29;100.00
6829;BME280;17930;48.592;8.868;2023-03-22T06:03:32;96513.47;;;4.22;100.00
6829;BME280;17930;48.592;8.868;2023-03-22T06:05:59;96511.72;;;4.44;100.00
6829;BME280;17930;48.592;8.868;2023-03-22T06:08:26;96512.97;;;4.41;100.00
6829;BME280;17930;48.592;8.868;2023-03-22T06:10:53;96508.31;;;4.38;100.00
6829;BME280;17930;48.592;8.868;2023-03-22T06:13:20;96510.03;;;4.75;100.00
6829;BME280;17930;48.592;8.868;2023-03-22T06:15:48;96512.72;;;5.07;100.00
6829;BME280;17930;48.592;8.868;2023-03-22T06:18:15;96505.84;;;6.06;100.00
6829;BME280;17930;48.592;8.868;2023-03-22T06:20:42;96502.72;;;7.01;100.00
6829;BME280;17930;48.592;8.868;2023-03-22T06:23:09;96506.69;;;7.92;100.00
6829;BME280;17930;48.592;8.868;2023-03-22T06:25:35;96505.88;;;8.51;100.00
6829;BME280;17930;48.592;8.868;2023-03-22T06:28:02;96509.97;;;9.25;100.00
6829;BME280;17930;48.592;8.868;2023-03-22T06:30:29;96508.81;;;9.84;100.00
6829;BME280;17930;48.592;8.868;2023-03-22T06:32:57;96501.13;;;10.30;100.00
6829;BME280;17930;48.592;8.868;2023-03-22T06:35:28;96488.19;;;10.72;100.00
6829;BME280;17930;48.592;8.868;2023-03-22T06:38:00;96488.47;;;10.89;100.00
6829;BME280;17930;48.592;8.868;2023-03-22T06:40:26;96502.03;;;10.91;100.00
6829;BME280;17930;48.592;8.868;2023-03-22T06:42:53;96508.63;;;11.07;100.00
6829;BME280;17930;48.592;8.868;2023-03-22T06:45:20;96511.09;;;11.17;100.00
6829;BME280;17930;48.592;8.868;2023-03-22T06:47:47;96504.97;;;11.08;100.00
6829;BME280;17930;48.592;8.868;2023-03-22T06:50:16;96513.31;;;10.63;100.00
6829;BME280;17930;48.592;8.868;2023-03-22T06:52:43;96508.97;;;10.77;100.00
6829;BME280;17930;48.592;8.868;2023-03-22T06:55:09;96500.47;;;10.90;100.00
6829;BME280;17930;48.592;8.868;2023-03-22T06:57:36;96492.38;;;11.33;100.00
6829;BME280;17930;48.592;8.868;2023-03-22T07:00:03;96498.56;;;11.55;100.00
6829;BME280;17930;48.592;8.868;2023-03-22T07:02:30;96505.22;;;11.66;100.00
6829;BME280;17930;48.592;8.868;2023-03-22T07:04:57;96505.78;;;11.81;100.00
6829;BME280;17930;48.592;8.868;2023-03-22T07:07:26;96501.97;;;12.37;100.00
6829;BME280;17930;48.592;8.868;2023-03-22T07:09:53;96495.41;;;13.07;100.00
6829;BME280;17930;48.592;8.868;2023-03-22T07:12:21;96506.22;;;13.40;100.00
6829;BME280;17930;48.592;8.868;2023-03-22T07:14:48;96493.69;;;13.37;100.00
6829;BME280;17930;48.592;8.868;2023-03-22T07:17:17;96504.69;;;13.26;100.00
6829;BME280;17930;48.592;8.868;2023-03-22T07:19:43;96501.97;;;13.66;100.00
6829;BME280;17930;48.592;8.868;2023-03-22T07:22:10;96501.75;;;13.98;100.00
6829;BME280;17930;48.592;8.868;2023-03-22T07:24:38;96494.13;;;14.32;100.00
6829;BME280;17930;48.592;8.868;2023-03-22T07:27:07;96496.63;;;13.93;100.00
6829;BME280;17930;48.592;8.868;2023-03-22T07:29:34;96495.78;;;14.28;100.00
6829;BME280;17930;48.592;8.868;2023-03-22T07:32:01;96505.00;;;14.17;100.00
6829;BME280;17930;48.592;8.868;2023-03-22T07:34:27;96500.94;;;14.71;100.00
6829;BME280;17930;48.592;8.868;2023-03-22T07:36:54;96494.81;;;14.84;100.00
6829;BME280;17930;48.592;8.868;2023-03-22T07:39:22;96501.00;;;14.88;100.00
6829;BME280;17930;48.592;8.868;2023-03-22T07:41:51;96494.66;;;14.81;100.00
6829;BME280;17930;48.592;8.868;2023-03-22T07:44:18;96488.66;;;14.97;100.00
6829;BME280;17930;48.592;8.868;2023-03-22T07:46:44;96492.50;;;15.63;100.00
6829;BME280;17930;48.592;8.868;2023-03-22T07:49:11;96498.72;;;15.84;100.00
6829;BME280;17930;48.592;8.868;2023-03-22T07:51:38;96491.41;;;16.15;100.00
6829;BME280;17930;48.592;8.868;2023-03-22T07:54:04;96494.69;;;15.95;100.00
6829;BME280;17930;48.592;8.868;2023-03-22T07:56:31;96497.91;;;16.17;100.00
6829;BME280;17930;48.592;8.868;2023-03-22T07:58:59;96488.88;;;16.89;100.00
6829;BME280;17930;48.592;8.868;2023-03-22T08:01:26;96489.25;;;17.37;100.00
6829;BME280;17930;48.592;8.868;2023-03-22T08:03:52;96482.19;;;17.49;100.00
6829;BME280;17930;48.592;8.868;2023-03-22T08:06:19;96491.16;;;18.09;100.00
6829;BME280;17930;48.592;8.868;2023-03-22T08:08:46;96490.13;;;18.22;100.00
6829;BME280;17930;48.592;8.868;2023-03-22T08:11:12;96487.50;;;18.78;100.00
6829;BME280;17930;48.592;8.868;2023-03-22T08:13:40;96491.28;;;18.12;100.00
6829;BME280;17930;48.592;8.868;2023-03-22T08:16:09;96492.25;;;18.08;100.00
6829;BME280;17930;48.592;8.868;2023-03-22T08:18:36;96492.81;;;18.34;100.00
6829;BME280;17930;48.592;8.868;2023-03-22T08:21:03;96492.81;;;18.34;100.00
6829;BME280;17930;48.592;8.868;2023-03-22T08:23:29;96490.69;;;18.95;99.92
6829;BME280;17930;48.592;8.868;2023-03-22T08:25:57;96484.44;;;19.23;95.05
6829;BME280;17930;48.592;8.868;2023-03-22T08:28:23;96484.56;;;19.03;96.59
6829;BME280;17930;48.592;8.868;2023-03-22T08:30:50;96486.25;;;19.58;95.09
6829;BME280;17930;48.592;8.868;2023-03-22T08:33:18;96480.50;;;19.68;91.88
6829;BME280;17930;48.592;8.868;2023-03-22T08:35:48;96476.63;;;19.78;91.01
6829;BME280;17930;48.592;8.868;2023-03-22T08:38:15;96474.63;;;20.14;90.97
6829;BME280;17930;48.592;8.868;2023-03-22T08:40:44;96471.13;;;20.10;89.62
6829;BME280;17930;48.592;8.868;2023-03-22T08:43:11;96463.31;;;21.21;85.78
6829;BME280;17930;48.592;8.868;2023-03-22T08:45:37;96452.72;;;21.40;83.84
6829;BME280;17930;48.592;8.868;2023-03-22T08:48:05;96468.91;;;20.85;80.99
6829;BME280;17930;48.592;8.868;2023-03-22T08:50:33;96468.75;;;20.94;82.55
6829;BME280;17930;48.592;8.868;2023-03-22T08:53:00;96461.38;;;21.37;81.28
6829;BME280;17930;48.592;8.868;2023-03-22T08:55:27;96452.66;;;21.70;79.97
6829;BME280;17930;48.592;8.868;2023-03-22T08:57:53;96454.00;;;21.46;76.92
6829;BME280;17930;48.592;8.868;2023-03-22T09:00:23;96456.84;;;21.71;79.35
6829;BME280;17930;48.592;8.868;2023-03-22T09:02:49;96446.44;;;22.01;76.67
6829;BME280;17930;48.592;8.868;2023-03-22T09:05:16;96448.56;;;21.39;75.41
6829;BME280;17930;48.592;8.868;2023-03-22T09:07:44;96448.19;;;21.56;77.57
6829;BME280;17930;48.592;8.868;2023-03-22T09:10:11;96451.50;;;22.09;76.58
6829;BME280;17930;48.592;8.868;2023-03-22T09:12:37;96436.97;;;22.03;77.17
6829;BME280;17930;48.592;8.868;2023-03-22T09:15:05;96440.97;;;22.54;76.90
6829;BME280;17930;48.592;8.868;2023-03-22T09:17:32;96435.47;;;22.65;73.58
6829;BME280;17930;48.592;8.868;2023-03-22T09:19:59;96429.22;;;22.32;73.49
6829;BME280;17930;48.592;8.868;2023-03-22T09:22:25;96433.34;;;22.11;75.43
6829;BME280;17930;48.592;8.868;2023-03-22T09:24:53;96431.88;;;22.32;74.76
6829;BME280;17930;48.592;8.868;2023-03-22T09:27:20;96427.28;;;22.11;73.21
6829;BME280;17930;48.592;8.868;2023-03-22T09:29:47;96433.63;;;22.25;75.21
6829;BME280;17930;48.592;8.868;2023-03-22T09:32:14;96433.91;;;22.01;74.02
6829;BME280;17930;48.592;8.868;2023-03-22T09:34:41;96432.09;;;21.86;75.22
6829;BME280;17930;48.592;8.868;2023-03-22T09:37:08;96426.53;;;22.99;73.50
6829;BME280;17930;48.592;8.868;2023-03-22T09:39:37;96412.31;;;24.38;69.75
6829;BME280;17930;48.592;8.868;2023-03-22T09:42:09;96414.34;;;23.79;66.87
6829;BME280;17930;48.592;8.868;2023-03-22T09:44:42;96404.50;;;24.59;65.92
6829;BME280;17930;48.592;8.868;2023-03-22T09:47:15;96400.78;;;24.70;63.70
6829;BME280;17930;48.592;8.868;2023-03-22T09:49:45;96413.91;;;22.70;63.72
6829;BME280;17930;48.592;8.868;2023-03-22T09:52:15;96418.06;;;21.33;70.09
6829;BME280;17930;48.592;8.868;2023-03-22T09:54:44;96418.16;;;21.02;71.32
6829;BME280;17930;48.592;8.868;2023-03-22T09:57:21;96406.13;;;21.42;68.75
6829;BME280;17930;48.592;8.868;2023-03-22T09:59:55;96399.28;;;21.41;67.75
6829;BME280;17930;48.592;8.868;2023-03-22T10:02:46;96394.78;;;22.87;66.26
6829;BME280;17930;48.592;8.868;2023-03-22T10:05:23;96391.06;;;22.69;64.49
6829;BME280;17930;48.592;8.868;2023-03-22T10:08:05;96389.31;;;23.28;63.74
6829;BME280;17930;48.592;8.868;2023-03-22T10:10:36;96380.59;;;23.61;61.43
6829;BME280;17930;48.592;8.868;2023-03-22T10:13:12;96370.53;;;23.18;61.62
6829;BME280;17930;48.592;8.868;2023-03-22T10:15:45;96378.25;;;21.89;63.91
6829;BME280;17930;48.592;8.868;2023-03-22T10:18:15;96391.53;;;21.33;66.28
6829;BME280;17930;48.592;8.868;2023-03-22T10:20:47;96385.69;;;21.80;64.09
6829;BME280;17930;48.592;8.868;2023-03-22T10:23:16;96376.25;;;22.94;64.84
6829;BME280;17930;48.592;8.868;2023-03-22T10:25:46;96372.03;;;24.50;60.51
6829;BME280;17930;48.592;8.868;2023-03-22T10:28:17;96371.38;;;22.96;60.52
6829;BME280;17930;48.592;8.868;2023-03-22T10:30:46;96361.22;;;23.64;59.31
6829;BME280;17930;48.592;8.868;2023-03-22T10:33:25;96362.47;;;24.06;57.67
6829;BME280;17930;48.592;8.868;2023-03-22T10:35:53;96358.84;;;23.59;58.53
6829;BME280;17930;48.592;8.868;2023-03-22T10:38:23;96357.44;;;22.58;60.01
6829;BME280;17930;48.592;8.868;2023-03-22T10:40:52;96358.53;;;22.79;60.43
6829;BME280;17930;48.592;8.868;2023-03-22T10:43:24;96351.84;;;22.89;58.69
6829;BME280;17930;48.592;8.868;2023-03-22T10:45:54;96354.53;;;22.66;58.57
6829;BME280;17930;48.592;8.868;2023-03-22T10:48:26;96350.56;;;22.54;58.44
6829;BME280;17930;48.592;8.868;2023-03-22T10:50:55;96348.91;;;23.52;57.26
6829;BME280;17930;48.592;8.868;2023-03-22T10:53:28;96360.22;;;23.46;55.68
6829;BME280;17930;48.592;8.868;2023-03-22T10:55:56;96348.56;;;24.73;54.15
6829;BME280;17930;48.592;8.868;2023-03-22T10:58:29;96331.09;;;25.53;52.68
6829;BME280;17930;48.592;8.868;2023-03-22T11:00:58;96342.84;;;23.22;54.00
6829;BME280;17930;48.592;8.868;2023-03-22T11:03:29;96343.28;;;22.51;56.40
6829;BME280;17930;48.592;8.868;2023-03-22T11:06:01;96342.72;;;22.64;55.49
6829;BME280;17930;48.592;8.868;2023-03-22T11:08:37;96347.59;;;22.59;56.20
6829;BME280;17930;48.592;8.868;2023-03-22T11:11:05;96350.97;;;23.66;53.87
6829;BME280;17930;48.592;8.868;2023-03-22T11:13:34;96339.47;;;23.29;54.54
6829;BME280;17930;48.592;8.868;2023-03-22T11:16:03;96347.19;;;23.67;54.34
6829;BME280;17930;48.592;8.868;2023-03-22T11:18:31;96343.78;;;24.99;52.51
6829;BME280;17930;48.592;8.868;2023-03-22T11:21:03;96341.69;;;23.85;52.83
6829;BME280;17930;48.592;8.868;2023-03-22T11:23:32;96345.28;;;24.43;53.24
6829;BME280;17930;48.592;8.868;2023-03-22T11:26:05;96345.22;;;24.82;51.03
6829;BME280;17930;48.592;8.868;2023-03-22T11:28:44;96343.94;;;24.23;52.18
6829;BME280;17930;48.592;8.868;2023-03-22T11:31:13;96334.16;;;23.29;53.04
6829;BME280;17930;48.592;8.868;2023-03-22T11:33:53;96345.91;;;22.73;55.36
6829;BME280;17930;48.592;8.868;2023-03-22T11:36:20;96341.50;;;22.58;54.38
6829;BME280;17930;48.592;8.868;2023-03-22T11:38:47;96339.19;;;22.57;53.84
6829;BME280;17930;48.592;8.868;2023-03-22T11:41:23;96334.66;;;23.38;53.30
6829;BME280;17930;48.592;8.868;2023-03-22T11:43:54;96328.03;;;23.58;53.26
6829;BME280;17930;48.592;8.868;2023-03-22T11:46:22;96328.34;;;22.94;53.51
6829;BME280;17930;48.592;8.868;2023-03-22T11:48:50;96334.88;;;23.91;53.73
6829;BME280;17930;48.592;8.868;2023-03-22T11:51:25;96318.84;;;24.27;51.98
6829;BME280;17930;48.592;8.868;2023-03-22T11:53:55;96318.97;;;24.98;51.59
6829;BME280;17930;48.592;8.868;2023-03-22T11:56:27;96308.44;;;25.23;49.87
6829;BME280;17930;48.592;8.868;2023-03-22T11:58:58;96308.50;;;25.36;49.63
6829;BME280;17930;48.592;8.868;2023-03-22T12:01:34;96297.25;;;26.19;48.68
6829;BME280;17930;48.592;8.868;2023-03-22T12:04:08;96293.16;;;27.62;45.82
6829;BME280;17930;48.592;8.868;2023-03-22T12:06:39;96285.38;;;25.75;46.30
6829;BME280;17930;48.592;8.868;2023-03-22T12:09:11;96289.09;;;24.75;47.53
6829;BME280;17930;48.592;8.868;2023-03-22T12:11:45;96283.84;;;25.74;47.23
6829;BME280;17930;48.592;8.868;2023-03-22T12:14:21;96278.09;;;25.69;47.17
6829;BME280;17930;48.592;8.868;2023-03-22T12:16:51;96279.22;;;25.68;45.58
6829;BME280;17930;48.592;8.868;2023-03-22T12:19:26;96277.97;;;25.27;46.58
6829;BME280;17930;48.592;8.868;2023-03-22T12:21:55;96272.91;;;25.05;46.95
6829;BME280;17930;48.592;8.868;2023-03-22T12:24:26;96275.63;;;25.22;45.74
6829;BME280;17930;48.592;8.868;2023-03-22T12:26:57;96264.16;;;25.18;46.56
6829;BME280;17930;48.592;8.868;2023-03-22T12:29:27;96264.28;;;25.46;47.90
6829;BME280;17930;48.592;8.868;2023-03-22T12:31:59;96265.88;;;24.79;47.75
6829;BME280;17930;48.592;8.868;2023-03-22T12:34:36;96272.72;;;24.74;46.38
6829;BME280;17930;48.592;8.868;2023-03-22T12:37:05;96262.84;;;26.28;45.36
6829;BME280;17930;48.592;8.868;2023-03-22T12:39:36;96267.81;;;26.02;44.64
6829;BME280;17930;48.592;8.868;2023-03-22T12:42:11;96263.41;;;25.21;45.36
6829;BME280;17930;48.592;8.868;2023-03-22T12:44:42;96256.72;;;25.69;44.85
6829;BME280;17930;48.592;8.868;2023-03-22T12:47:15;96259.75;;;26.95;43.25
6829;BME280;17930;48.592;8.868;2023-03-22T12:49:48;96253.28;;;25.68;44.83
6829;BME280;17930;48.592;8.868;2023-03-22T12:52:20;96255.59;;;25.94;44.37
6829;BME280;17930;48.592;8.868;2023-03-22T12:54:49;96258.47;;;24.52;44.08
6829;BME280;17930;48.592;8.868;2023-03-22T12:57:18;96249.25;;;24.43;44.52
6829;BME280;17930;48.592;8.868;2023-03-22T12:59:48;96247.91;;;24.70;44.04
6829;BME280;17930;48.592;8.868;2023-03-22T13:02:18;96252.69;;;24.43;44.33
6829;BME280;17930;48.592;8.868;2023-03-22T13:04:51;96245.59;;;24.68;43.02
6829;BME280;17930;48.592;8.868;2023-03-22T13:07:32;96246.13;;;24.34;43.81
6829;BME280;17930;48.592;8.868;2023-03-22T13:13:14;96245.06;;;25.09;43.28
6829;BME280;17930;48.592;8.868;2023-03-22T13:15:59;96243.63;;;24.05;44.05
6829;BME280;17930;48.592;8.868;2023-03-22T13:18:36;96243.19;;;24.46;44.38
6829;BME280;17930;48.592;8.868;2023-03-22T13:21:11;96243.19;;;24.49;44.18
6829;BME280;17930;48.592;8.868;2023-03-22T13:23:53;96247.44;;;24.07;44.88
6829;BME280;17930;48.592;8.868;2023-03-22T13:26:32;96245.03;;;23.56;45.00
6829;BME280;17930;48.592;8.868;2023-03-22T13:29:05;96234.88;;;23.65;46.69